createdAt,value
2019-02-18T00:01:49.561Z,54.77
2019-02-18T00:04:35.649Z,55.13
2019-02-18T00:07:21.457Z,55.10
2019-02-18T00:10:07.836Z,55.91
2019-02-18T00:12:54.022Z,55.47
2019-02-18T00:15:40.037Z,56.64
2019-02-18T00:18:27.885Z,56.87
2019-02-18T00:21:13.684Z,55.35
2019-02-18T00:24:00.547Z,56.43
2019-02-18T00:26:47.219Z,56.25
2019-02-18T00:29:33.069Z,55.41
2019-02-18T00:32:19.369Z,54.97
2019-02-18T00:35:08.042Z,55.11
2019-02-18T00:37:54.215Z,54.38
2019-02-18T00:40:42.065Z,55.11
2019-02-18T00:43:28.545Z,56.17
2019-02-18T00:46:14.586Z,55.58
2019-02-18T00:49:03.425Z,55.74
2019-02-18T00:51:49.771Z,55.63
2019-02-18T00:54:36.017Z,55.85
2019-02-18T00:57:21.933Z,56.88
2019-02-18T01:00:12.120Z,57.41
2019-02-18T01:02:58.515Z,58.02
2019-02-18T01:05:44.516Z,57.34
2019-02-18T01:08:31.006Z,58.37
2019-02-18T01:11:17.340Z,58.50
2019-02-18T01:14:03.158Z,58.21
2019-02-18T01:16:49.274Z,59.22
2019-02-18T01:19:35.186Z,59.27
2019-02-18T01:22:21.081Z,60.75
2019-02-18T01:25:08.990Z,60.37
2019-02-18T01:27:55.018Z,61.68
2019-02-18T01:30:40.837Z,61.10
2019-02-18T01:33:27.521Z,61.33
2019-02-18T01:36:13.597Z,60.95
2019-02-18T01:38:59.530Z,62.51
2019-02-18T01:41:45.881Z,62.02
2019-02-18T01:44:31.827Z,62.11
2019-02-18T01:47:17.881Z,63.29
2019-02-18T01:50:05.568Z,63.29
2019-02-18T01:52:51.581Z,63.20
2019-02-18T01:55:37.810Z,61.79
2019-02-18T01:58:23.898Z,62.79
2019-02-18T02:01:09.978Z,62.90
2019-02-18T02:03:56.046Z,63.72
2019-02-18T02:06:42.200Z,63.94
2019-02-18T02:09:28.322Z,64.62
2019-02-18T02:12:14.430Z,64.14
2019-02-18T02:15:00.684Z,66.08
2019-02-18T02:17:47.123Z,66.08
2019-02-18T02:20:34.621Z,65.85
2019-02-18T02:23:20.962Z,66.04
2019-02-18T02:26:07.138Z,67.08
2019-02-18T02:28:52.926Z,66.55
2019-02-18T02:31:38.868Z,65.82
2019-02-18T02:34:24.943Z,65.13
2019-02-18T02:37:11.186Z,65.40
2019-02-18T02:39:57.451Z,65.34
2019-02-18T02:42:43.585Z,65.01
2019-02-18T02:45:29.923Z,65.99
2019-02-18T02:48:15.853Z,65.44
2019-02-18T02:51:01.898Z,62.84
2019-02-18T02:53:47.978Z,63.57
2019-02-18T02:56:34.164Z,62.56
2019-02-18T02:59:21.524Z,62.24
2019-02-18T03:02:07.990Z,63.35
2019-02-18T03:04:54.056Z,63.35
2019-02-18T03:07:39.795Z,62.83
2019-02-18T03:10:26.024Z,62.83
2019-02-18T03:13:12.105Z,62.92
2019-02-18T03:15:58.105Z,63.98
2019-02-18T03:18:44.301Z,65.56
2019-02-18T03:21:30.575Z,64.77
2019-02-18T03:24:16.533Z,65.15
2019-02-18T03:27:02.804Z,65.40
2019-02-18T03:30:42.565Z,66.21
2019-02-18T03:33:37.807Z,67.07
2019-02-18T03:36:23.993Z,68.09
2019-02-18T03:39:10.306Z,67.90
2019-02-18T03:41:56.881Z,68.21
2019-02-18T03:44:45.674Z,68.04
2019-02-18T03:47:32.038Z,69.23
2019-02-18T03:50:18.205Z,68.51
2019-02-18T03:53:04.318Z,68.51
2019-02-18T03:55:50.430Z,68.36
2019-02-18T03:58:37.158Z,68.36
2019-02-18T04:01:23.442Z,68.49
2019-02-18T04:04:09.930Z,68.78
2019-02-18T04:06:56.453Z,69.11
2019-02-18T04:09:42.502Z,69.02
2019-02-18T04:12:28.395Z,68.70
2019-02-18T04:15:14.707Z,67.89
2019-02-18T04:18:00.839Z,67.63
2019-02-18T04:20:49.475Z,68.86
2019-02-18T04:23:35.784Z,68.76
2019-02-18T04:26:22.141Z,68.76
2019-02-18T04:29:08.374Z,68.90
2019-02-18T04:31:54.530Z,68.90
2019-02-18T04:34:40.920Z,70.34
2019-02-18T04:37:26.957Z,69.28
2019-02-18T04:40:13.369Z,69.28
2019-02-18T04:42:59.373Z,69.02
2019-02-18T04:45:45.290Z,68.54
2019-02-18T04:48:31.611Z,67.42
2019-02-18T04:51:17.724Z,67.44
2019-02-18T04:54:03.890Z,67.78
2019-02-18T04:56:50.549Z,66.99
2019-02-18T04:59:36.590Z,67.66
2019-02-18T05:02:22.471Z,66.77
2019-02-18T05:05:08.565Z,67.85
2019-02-18T05:07:54.306Z,67.38
2019-02-18T05:10:40.622Z,68.61
2019-02-18T05:13:26.713Z,67.85
2019-02-18T05:16:12.816Z,67.85
2019-02-18T05:18:58.794Z,68.58
2019-02-18T05:21:45.490Z,69.67
2019-02-18T05:24:31.383Z,70.56
2019-02-18T05:27:17.628Z,70.56
2019-02-18T05:30:04.907Z,69.71
2019-02-18T05:32:50.750Z,69.36
2019-02-18T05:35:36.746Z,70.07
2019-02-18T05:38:23.087Z,69.28
2019-02-18T05:41:09.326Z,69.29
2019-02-18T05:43:55.452Z,69.00
2019-02-18T05:46:41.571Z,68.50
2019-02-18T05:49:27.551Z,68.50
2019-02-18T05:52:13.560Z,69.48
2019-02-18T05:54:59.846Z,70.29
2019-02-18T05:57:45.902Z,70.29
2019-02-18T06:00:32.555Z,70.76
2019-02-18T06:03:18.873Z,70.76
2019-02-18T06:06:05.171Z,68.00
2019-02-18T06:08:51.410Z,68.00
2019-02-18T06:11:37.834Z,68.79
2019-02-18T06:14:23.653Z,68.07
2019-02-18T06:17:09.818Z,68.72
2019-02-18T06:19:56.523Z,68.72
2019-02-18T06:22:42.698Z,69.83
2019-02-18T06:25:28.882Z,70.04
2019-02-18T06:28:15.290Z,70.87
2019-02-18T06:31:01.600Z,70.86
2019-02-18T06:33:47.989Z,71.08
2019-02-18T06:36:34.351Z,70.90
2019-02-18T06:39:20.280Z,70.90
2019-02-18T06:42:06.580Z,68.69
2019-02-18T06:45:22.643Z,68.33
2019-02-18T06:48:34.138Z,68.33
2019-02-18T06:51:20.245Z,69.28
2019-02-18T06:54:06.310Z,69.28
2019-02-18T06:57:01.630Z,69.93
2019-02-18T06:59:50.857Z,68.98
2019-02-18T07:02:57.630Z,68.37
2019-02-18T07:05:54.965Z,68.37
2019-02-18T07:08:46.793Z,68.57
2019-02-18T07:11:55.895Z,67.66
2019-02-18T07:14:41.714Z,67.66
2019-02-18T07:17:28.046Z,67.80
2019-02-18T07:20:14.318Z,68.25
2019-02-18T07:23:00.480Z,67.27
2019-02-18T07:25:46.910Z,67.23
2019-02-18T07:28:32.862Z,66.65
2019-02-18T07:31:20.554Z,68.03
2019-02-18T07:34:06.903Z,66.49
2019-02-18T07:36:52.799Z,66.32
2019-02-18T07:39:39.038Z,65.81
2019-02-18T07:42:25.683Z,65.50
2019-02-18T07:45:11.738Z,64.06
2019-02-18T07:48:04.023Z,62.30
2019-02-18T07:50:50.191Z,59.43
2019-02-18T07:53:39.177Z,57.59
2019-02-18T07:56:27.223Z,53.09
2019-02-18T07:59:15.959Z,53.83
2019-02-18T08:02:02.245Z,53.27
2019-02-18T08:04:49.127Z,49.81
2019-02-18T08:07:35.047Z,47.69
2019-02-18T08:10:21.108Z,45.52
2019-02-18T08:13:07.364Z,43.68
2019-02-18T08:15:53.467Z,43.41
2019-02-18T08:18:41.698Z,43.25
2019-02-18T08:21:28.172Z,44.38
2019-02-18T08:24:14.188Z,44.24
2019-02-18T08:27:00.182Z,44.04
2019-02-18T08:29:46.327Z,43.47
2019-02-18T08:32:32.855Z,43.31
2019-02-18T08:35:18.979Z,43.78
2019-02-18T08:38:07.135Z,42.27
2019-02-18T08:40:53.110Z,42.03
2019-02-18T08:43:39.179Z,40.06
2019-02-18T08:46:25.419Z,41.08
2019-02-18T08:49:11.758Z,40.98
2019-02-18T08:51:58.510Z,40.48
2019-02-18T08:54:44.744Z,39.61
2019-02-18T08:57:30.693Z,37.35
2019-02-18T09:00:16.771Z,33.82
2019-02-18T09:03:05.772Z,35.64
2019-02-18T09:05:52.095Z,36.24
2019-02-18T09:08:41.020Z,36.90
2019-02-18T09:11:27.336Z,35.63
2019-02-18T09:14:15.835Z,36.28
2019-02-18T09:17:02.052Z,35.52
2019-02-18T09:19:48.271Z,35.83
2019-02-18T09:22:54.158Z,35.71
2019-02-18T09:25:51.640Z,35.82
2019-02-18T09:28:37.905Z,37.48
2019-02-18T09:31:27.864Z,38.75
2019-02-18T09:34:14.183Z,38.23
2019-02-18T09:37:00.263Z,39.51
2019-02-18T09:39:48.013Z,38.50
2019-02-18T09:42:37.283Z,38.36
2019-02-18T09:45:26.229Z,39.31
2019-02-18T09:48:12.569Z,38.95
2019-02-18T09:51:00.118Z,38.62
2019-02-18T09:53:46.305Z,36.50
2019-02-18T09:56:33.045Z,34.64
2019-02-18T09:59:19.086Z,34.10
2019-02-18T10:02:07.955Z,34.48
2019-02-18T10:04:56.510Z,34.89
2019-02-18T10:07:44.139Z,34.98
2019-02-18T10:10:32.791Z,34.14
2019-02-18T10:13:19.428Z,34.63
2019-02-18T10:16:05.597Z,32.74
2019-02-18T10:18:51.483Z,31.61
2019-02-18T10:21:37.759Z,31.86
2019-02-18T10:24:24.325Z,31.55
2019-02-18T10:27:10.302Z,31.20
2019-02-18T10:29:56.669Z,30.25
2019-02-18T10:32:42.744Z,31.37
2019-02-18T10:35:28.505Z,31.60
2019-02-18T10:38:14.709Z,32.74
2019-02-18T10:41:06.937Z,32.84
2019-02-18T10:43:54.810Z,31.42
2019-02-18T10:46:41.292Z,31.90
2019-02-18T10:49:27.243Z,32.31
2019-02-18T10:52:16.042Z,31.89
2019-02-18T10:55:02.469Z,31.74
2019-02-18T10:57:48.630Z,32.00
2019-02-18T11:00:34.894Z,32.40
2019-02-18T11:03:20.939Z,30.75
2019-02-18T11:06:09.251Z,31.45
2019-02-18T11:08:55.476Z,31.76
2019-02-18T11:11:41.310Z,30.54
2019-02-18T11:14:29.326Z,32.30
2019-02-18T11:17:15.754Z,31.87
2019-02-18T11:20:02.200Z,32.11
2019-02-18T11:22:50.952Z,33.02
2019-02-18T11:25:37.685Z,31.99
2019-02-18T11:28:23.565Z,32.07
2019-02-18T11:31:09.557Z,31.04
2019-02-18T11:33:56.359Z,32.08
2019-02-18T11:36:43.342Z,31.33
2019-02-18T11:39:29.422Z,31.44
2019-02-18T11:42:15.691Z,31.23
2019-02-18T11:45:01.686Z,33.49
2019-02-18T11:47:48.192Z,33.33
2019-02-18T11:50:34.263Z,29.82
2019-02-18T11:53:22.989Z,30.39
2019-02-18T11:56:11.374Z,30.68
2019-02-18T11:58:57.747Z,30.08
2019-02-18T12:01:43.814Z,31.41
2019-02-18T12:04:29.572Z,30.74
2019-02-18T12:07:15.695Z,31.19
2019-02-18T12:10:03.991Z,30.50
2019-02-18T12:12:49.956Z,30.79
2019-02-18T12:15:36.164Z,31.80
2019-02-18T12:18:22.155Z,32.22
2019-02-18T12:21:08.405Z,32.11
2019-02-18T12:23:56.557Z,31.23
2019-02-18T12:26:42.845Z,29.60
2019-02-18T12:29:28.875Z,30.07
2019-02-18T12:32:15.115Z,29.98
2019-02-18T12:35:03.519Z,32.07
2019-02-18T12:37:55.372Z,30.14
2019-02-18T12:40:37.659Z,30.77
2019-02-18T12:43:23.575Z,31.12
2019-02-18T12:46:15.874Z,30.21
2019-02-18T12:48:57.616Z,31.38
2019-02-18T12:51:46.481Z,30.71
2019-02-18T12:54:32.345Z,31.88
2019-02-18T12:57:18.319Z,29.76
2019-02-18T13:00:08.424Z,30.58
2019-02-18T13:02:54.366Z,27.39
2019-02-18T13:05:40.332Z,29.21
2019-02-18T13:08:26.473Z,29.10
2019-02-18T13:11:13.667Z,30.56
2019-02-18T13:13:59.934Z,29.65
2019-02-18T13:16:46.139Z,29.79
2019-02-18T13:19:35.115Z,30.50
2019-02-18T13:22:24.427Z,30.13
2019-02-18T13:25:12.781Z,30.18
2019-02-18T13:27:58.995Z,29.16
2019-02-18T13:30:44.926Z,29.42
2019-02-18T13:33:31.184Z,28.06
2019-02-18T13:36:17.346Z,29.53
2019-02-18T13:39:07.170Z,29.78
2019-02-18T13:41:53.531Z,27.69
2019-02-18T13:44:40.131Z,28.17
2019-02-18T13:47:26.058Z,28.75
2019-02-18T13:50:18.412Z,27.51
2019-02-18T13:53:04.888Z,27.17
2019-02-18T13:55:50.776Z,27.39
2019-02-18T13:58:36.954Z,26.65
2019-02-18T14:01:23.111Z,25.60
2019-02-18T14:04:09.206Z,26.49
2019-02-18T14:06:55.579Z,26.21
2019-02-18T14:09:41.864Z,26.34
2019-02-18T14:12:30.819Z,26.94
2019-02-18T14:15:17.626Z,27.02
2019-02-18T14:18:07.500Z,27.14
2019-02-18T14:20:54.087Z,26.25
2019-02-18T14:23:42.188Z,26.43
2019-02-18T14:26:29.811Z,24.80
2019-02-18T14:29:17.896Z,26.66
2019-02-18T14:32:04.319Z,24.72
2019-02-18T14:34:50.728Z,25.47
2019-02-18T14:37:39.405Z,26.59
2019-02-18T14:40:27.091Z,26.22
2019-02-18T14:43:17.822Z,25.92
2019-02-18T14:46:04.604Z,25.51
2019-02-18T14:48:50.860Z,24.95
2019-02-18T14:51:36.920Z,25.93
2019-02-18T14:54:23.488Z,26.63
2019-02-18T14:57:13.627Z,25.23
2019-02-18T14:59:59.991Z,27.06
2019-02-18T15:02:46.603Z,27.17
2019-02-18T15:05:33.002Z,27.80
2019-02-18T15:08:18.988Z,27.60
2019-02-18T15:11:05.504Z,27.04
2019-02-18T15:13:52.230Z,27.83
2019-02-18T15:16:38.165Z,28.40
2019-02-18T15:19:30.303Z,28.52
2019-02-18T15:22:16.500Z,29.89
2019-02-18T15:25:02.877Z,29.92
2019-02-18T15:27:49.228Z,30.36
2019-02-18T15:30:35.638Z,30.18
2019-02-18T15:33:24.575Z,30.14
2019-02-18T15:36:13.220Z,29.95
2019-02-18T15:39:03.772Z,30.36
2019-02-18T15:41:49.864Z,29.98
2019-02-18T15:44:35.960Z,30.41
2019-02-18T15:47:23.023Z,30.62
2019-02-18T15:50:09.449Z,30.97
2019-02-18T15:52:55.724Z,31.21
2019-02-18T15:55:44.636Z,31.71
2019-02-18T15:58:31.312Z,31.86
2019-02-18T16:01:17.346Z,32.65
2019-02-18T16:04:04.193Z,35.98
2019-02-18T16:06:51.417Z,32.75
2019-02-18T16:09:37.626Z,32.58
2019-02-18T16:12:23.456Z,31.06
2019-02-18T16:15:11.771Z,31.00
2019-02-18T16:18:00.608Z,33.88
2019-02-18T16:20:46.481Z,32.81
2019-02-18T16:23:32.404Z,34.15
2019-02-18T16:26:18.727Z,33.11
2019-02-18T16:29:06.624Z,34.77
2019-02-18T16:31:53.162Z,36.27
2019-02-18T16:34:39.401Z,37.39
2019-02-18T16:37:25.979Z,36.57
2019-02-18T16:40:13.938Z,39.78
2019-02-18T16:43:00.295Z,37.50
2019-02-18T16:45:46.267Z,37.77
2019-02-18T16:48:33.035Z,36.54
2019-02-18T16:51:22.373Z,37.26
2019-02-18T16:54:12.134Z,39.20
2019-02-18T16:56:59.649Z,40.39
2019-02-18T16:59:50.224Z,40.93
2019-02-18T17:02:36.848Z,42.36
2019-02-18T17:05:27.095Z,43.31
2019-02-18T17:08:13.352Z,43.65
2019-02-18T17:11:04.428Z,45.68
2019-02-18T17:13:50.268Z,44.95
2019-02-18T17:16:37.791Z,43.81
2019-02-18T17:19:23.611Z,41.31
2019-02-18T17:22:09.514Z,37.10
2019-02-18T17:24:58.676Z,35.52
2019-02-18T17:27:44.840Z,35.87
2019-02-18T17:30:31.011Z,35.51
2019-02-18T17:33:19.217Z,35.82
2019-02-18T17:36:05.676Z,35.90
2019-02-18T17:38:51.636Z,35.49
2019-02-18T17:41:37.889Z,35.64
2019-02-18T17:44:24.118Z,35.88
2019-02-18T17:47:10.049Z,35.78
2019-02-18T17:49:56.865Z,35.46
2019-02-18T17:52:45.789Z,35.39
2019-02-18T17:55:31.876Z,35.29
2019-02-18T17:58:18.127Z,35.47
2019-02-18T18:01:05.450Z,35.70
2019-02-18T18:03:51.786Z,35.99
2019-02-18T18:06:41.318Z,35.98
2019-02-18T18:09:27.678Z,35.81
2019-02-18T18:12:13.520Z,36.60
2019-02-18T18:14:59.843Z,36.10
2019-02-18T18:17:47.567Z,36.19
2019-02-18T18:20:33.468Z,36.87
2019-02-18T18:23:21.908Z,37.26
2019-02-18T18:26:07.855Z,38.02
2019-02-18T18:28:53.823Z,37.48
2019-02-18T18:31:39.983Z,38.24
2019-02-18T18:34:26.165Z,37.89
2019-02-18T18:37:12.249Z,39.21
2019-02-18T18:39:58.601Z,39.43
2019-02-18T18:42:46.528Z,39.13
2019-02-18T18:45:32.721Z,39.02
2019-02-18T18:48:18.848Z,38.75
2019-02-18T18:51:06.465Z,39.00
2019-02-18T18:53:52.273Z,39.07
2019-02-18T18:56:38.605Z,38.75
2019-02-18T18:59:26.043Z,39.34
2019-02-18T19:02:12.582Z,39.29
2019-02-18T19:04:58.875Z,39.78
2019-02-18T19:07:46.744Z,40.25
2019-02-18T19:10:35.891Z,40.47
2019-02-18T19:13:22.152Z,40.19
2019-02-18T19:16:08.474Z,40.50
2019-02-18T19:18:55.680Z,40.38
2019-02-18T19:21:42.487Z,40.79
2019-02-18T19:24:29.994Z,41.19
2019-02-18T19:27:18.961Z,41.94
2019-02-18T19:30:06.797Z,42.29
2019-02-18T19:32:53.091Z,42.32
2019-02-18T19:35:39.324Z,42.59
2019-02-18T19:38:28.596Z,42.26
2019-02-18T19:41:20.845Z,42.83
2019-02-18T19:44:06.709Z,43.30
2019-02-18T19:46:58.550Z,43.28
2019-02-18T19:49:45.012Z,44.06
2019-02-18T19:52:31.474Z,43.82
2019-02-18T19:55:22.552Z,43.81
2019-02-18T19:58:11.193Z,43.70
2019-02-18T20:00:59.502Z,44.35
2019-02-18T20:03:46.021Z,44.74
2019-02-18T20:06:32.174Z,45.18
2019-02-18T20:09:18.571Z,45.27
2019-02-18T20:12:08.278Z,45.66
2019-02-18T20:14:54.807Z,46.29
2019-02-18T20:17:40.889Z,46.20
2019-02-18T20:20:27.480Z,46.78
2019-02-18T20:23:13.882Z,47.06
2019-02-18T20:26:05.063Z,47.77
2019-02-18T20:28:57.377Z,48.01
2019-02-18T20:31:43.847Z,48.12
2019-02-18T20:34:30.093Z,48.68
2019-02-18T20:37:18.442Z,48.77
2019-02-18T20:40:04.752Z,49.19
2019-02-18T20:42:51.156Z,49.52
2019-02-18T20:45:37.508Z,49.95
2019-02-18T20:48:24.536Z,50.10
2019-02-18T20:51:14.245Z,50.77
2019-02-18T20:54:02.884Z,50.61
2019-02-18T20:56:51.883Z,51.45
2019-02-18T20:59:38.416Z,51.44
2019-02-18T21:02:27.180Z,51.75
2019-02-18T21:05:18.698Z,51.78
2019-02-18T21:08:07.758Z,52.39
2019-02-18T21:10:54.992Z,52.57
2019-02-18T21:13:40.951Z,52.94
2019-02-18T21:16:31.826Z,53.53
2019-02-18T21:19:18.283Z,53.80
2019-02-18T21:22:08.461Z,53.61
2019-02-18T21:24:54.802Z,53.92
2019-02-18T21:27:43.429Z,53.65
2019-02-18T21:30:29.663Z,54.27
2019-02-18T21:33:17.126Z,54.21
2019-02-18T21:36:03.066Z,54.42
2019-02-18T21:38:49.278Z,54.80
2019-02-18T21:41:35.429Z,54.91
2019-02-18T21:44:25.281Z,55.21
2019-02-18T21:47:09.383Z,55.23
2019-02-18T21:49:55.591Z,55.48
2019-02-18T21:52:43.412Z,55.63
2019-02-18T21:55:31.857Z,55.57
2019-02-18T21:58:18.052Z,55.81
2019-02-18T22:01:03.937Z,56.34
2019-02-18T22:03:49.853Z,56.24
2019-02-18T22:06:36.038Z,56.20
2019-02-18T22:09:22.326Z,56.02
2019-02-18T22:12:08.338Z,56.26
2019-02-18T22:14:54.592Z,56.52
2019-02-18T22:17:40.988Z,56.47
2019-02-18T22:20:26.769Z,56.74
2019-02-18T22:23:14.143Z,56.86
2019-02-18T22:26:01.616Z,57.29
2019-02-18T22:28:48.300Z,57.15
2019-02-18T22:31:34.456Z,56.96
2019-02-18T22:34:22.949Z,57.10
2019-02-18T22:37:09.204Z,57.57
2019-02-18T22:39:55.376Z,57.64
2019-02-18T22:42:41.436Z,57.75
2019-02-18T22:45:27.510Z,57.70
2019-02-18T22:48:14.092Z,58.03
2019-02-18T22:51:06.197Z,57.84
2019-02-18T22:53:52.518Z,58.16
2019-02-18T22:56:38.767Z,58.25
2019-02-18T22:59:29.924Z,58.11
2019-02-18T23:02:18.192Z,58.13
2019-02-18T23:05:04.756Z,57.91
2019-02-18T23:07:51.074Z,58.03
2019-02-18T23:10:36.936Z,58.33
2019-02-18T23:13:23.198Z,58.66
2019-02-18T23:16:09.324Z,58.71
2019-02-18T23:18:55.617Z,59.23
2019-02-18T23:21:42.641Z,59.07
2019-02-18T23:24:29.565Z,59.03
2019-02-18T23:27:15.378Z,58.98
2019-02-18T23:30:01.641Z,59.36
2019-02-18T23:32:48.080Z,59.59
2019-02-18T23:35:34.312Z,59.54
2019-02-18T23:38:20.716Z,59.34
2019-02-18T23:41:06.933Z,59.49
2019-02-18T23:43:52.736Z,59.64
2019-02-18T23:46:40.336Z,59.62
2019-02-18T23:49:26.353Z,59.52
2019-02-18T23:52:15.542Z,59.26
2019-02-18T23:55:01.973Z,59.23
2019-02-18T23:57:48.249Z,59.98
